Terminal Aerodrome Forecast
Issued by NWS Paducah, KY

Home | Current Version | Previous Version | Text Only | Print | Product List | Glossary Off
Versions: 1 2 3 4 5 6 7 8 9 10 11 12 13 14

000
FTUS43 KPAH 242333
TAFPAH
TAF
KPAH 242333Z 2500/2524 16009KT P6SM BKN180
     FM250400 16011KT P6SM BKN150 WS020/18045KT
     FM251100 17013G21KT 6SM -SHRA BKN050
     FM251400 17013G21KT P6SM -SHRA BKN030
     FM251700 17014G23KT P6SM -SHRA VCTS BKN035CB=

USA.gov is the U.S. government's official web portal to all federal, state and local government web resources and services.